Time;durP1;ratioP1;P1;durP2;ratioP2;P2;SDS_P1;SDS_P2;PMS_P1;PMS_P2;Temp;Humidity;BMP_temperature;BMP_pressure;BME280_temperature;BME280_humidity;BME280_pressure;Samples;Min_cycle;Max_cycle;Signal;HPM_P1;HPM_P2
2022/05/25 00:03:17;;;;;;;2.70;1.50;;;17.60;92.40;;;;;;10438440;28;20214;-80
2022/05/25 00:08:20;;;;;;;2.33;1.87;;;17.80;92.10;;;;;;10435811;28;20271;-80
2022/05/25 00:13:23;;;;;;;5.23;1.60;;;17.80;92.40;;;;;;10420143;28;20217;-79
2022/05/25 00:18:25;;;;;;;2.40;1.80;;;17.80;92.20;;;;;;10442338;28;20194;-80
2022/05/25 00:23:28;;;;;;;2.23;2.13;;;17.90;92.60;;;;;;10421239;28;20237;-79
2022/05/25 00:28:30;;;;;;;1.70;1.60;;;17.90;94.30;;;;;;10431359;28;20236;-79
2022/05/25 00:33:32;;;;;;;1.90;1.80;;;18.00;92.60;;;;;;10434721;28;20225;-78
2022/05/25 00:38:36;;;;;;;1.70;1.60;;;18.00;92.80;;;;;;10421534;28;20217;-78
2022/05/25 00:43:38;;;;;;;2.73;2.43;;;18.00;93.70;;;;;;10428797;28;20269;-78
2022/05/25 00:48:48;;;;;;;2.07;1.97;;;18.00;92.70;;;;;;10414396;28;20228;-79
2022/05/25 00:53:56;;;;;;;1.60;1.60;;;18.00;91.90;;;;;;10441698;28;20232;-79
2022/05/25 00:59:02;;;;;;;1.83;1.60;;;18.00;92.20;;;;;;10442853;28;20193;-79
2022/05/25 01:04:05;;;;;;;1.90;1.80;;;18.10;92.70;;;;;;10440024;28;20236;-79
2022/05/25 01:09:20;;;;;;;1.60;1.60;;;18.00;92.00;;;;;;10454858;28;20726;-78
2022/05/25 01:14:34;;;;;;;1.63;1.53;;;18.00;92.00;;;;;;10433231;28;20218;-81
2022/05/25 01:19:55;;;;;;;1.97;1.87;;;18.00;93.70;;;;;;10413698;28;20574;-77
2022/05/25 01:25:08;;;;;;;1.70;1.70;;;18.00;93.70;;;;;;10412030;28;20296;-79
2022/05/25 01:30:20;;;;;;;1.80;1.70;;;18.00;93.60;;;;;;10414030;28;20221;-80
2022/05/25 01:35:31;;;;;;;1.77;1.67;;;18.00;93.10;;;;;;10430177;28;20581;-80
2022/05/25 01:40:38;;;;;;;1.90;1.80;;;18.00;92.90;;;;;;10429355;28;20193;-79
2022/05/25 01:45:47;;;;;;;1.70;1.60;;;18.00;91.90;;;;;;10433078;28;20288;-80
2022/05/25 01:50:56;;;;;;;1.53;1.53;;;18.10;92.30;;;;;;10444954;28;20236;-80
2022/05/25 01:56:05;;;;;;;1.57;1.57;;;18.10;91.00;;;;;;10431971;28;20198;-79
2022/05/25 02:01:11;;;;;;;1.40;1.40;;;18.10;88.90;;;;;;10430315;28;20259;-80
2022/05/25 02:06:26;;;;;;;1.70;1.60;;;18.10;91.10;;;;;;10437594;28;20743;-79
2022/05/25 02:11:34;;;;;;;1.93;1.70;;;18.00;90.90;;;;;;10439500;28;20606;-80
2022/05/25 02:16:47;;;;;;;1.83;1.73;;;17.90;91.70;;;;;;10462118;28;20693;-80
2022/05/25 02:21:54;;;;;;;2.37;2.20;;;17.70;92.20;;;;;;10423919;28;20224;-80
2022/05/25 02:27:03;;;;;;;2.10;2.00;;;17.60;92.70;;;;;;10456736;28;20690;-79
2022/05/25 02:32:13;;;;;;;4.83;2.07;;;17.60;92.40;;;;;;10435947;28;20673;-79
2022/05/25 02:37:16;;;;;;;1.70;1.60;;;17.50;92.00;;;;;;10424820;28;20199;-79
2022/05/25 02:42:19;;;;;;;1.87;1.77;;;17.50;91.40;;;;;;10455437;28;20249;-79
2022/05/25 02:47:22;;;;;;;1.70;1.60;;;17.40;92.70;;;;;;10438848;28;20228;-79
2022/05/25 02:52:24;;;;;;;1.67;1.67;;;17.40;90.70;;;;;;10446842;28;20221;-80
2022/05/25 02:57:26;;;;;;;4.17;1.73;;;17.30;91.70;;;;;;10442059;28;20229;-79
2022/05/25 03:02:30;;;;;;;1.80;1.70;;;17.40;91.40;;;;;;10415977;28;20225;-80
2022/05/25 03:07:32;;;;;;;4.37;2.00;;;17.40;92.30;;;;;;10425340;28;20316;-79
2022/05/25 03:12:34;;;;;;;1.90;1.80;;;17.40;92.60;;;;;;10448690;28;20290;-78
2022/05/25 03:17:37;;;;;;;2.00;1.90;;;17.30;91.90;;;;;;10433822;28;20194;-79
2022/05/25 03:22:44;;;;;;;1.60;1.60;;;17.40;91.40;;;;;;10420328;28;20226;-79
2022/05/25 03:27:46;;;;;;;3.77;2.20;;;17.40;91.80;;;;;;10449189;28;20204;-78
2022/05/25 03:32:50;;;;;;;1.63;1.53;;;17.30;90.90;;;;;;10445626;28;20224;-78
2022/05/25 03:37:52;;;;;;;1.97;1.87;;;17.30;90.90;;;;;;10439607;28;20208;-78
2022/05/25 03:42:57;;;;;;;1.80;1.70;;;17.20;91.00;;;;;;10417161;28;20225;-78
2022/05/25 03:48:01;;;;;;;1.47;1.47;;;17.10;90.90;;;;;;10450157;28;20201;-78
2022/05/25 03:53:03;;;;;;;1.83;1.70;;;17.10;90.90;;;;;;10437989;28;20316;-79
2022/05/25 03:58:05;;;;;;;2.07;1.80;;;17.00;91.10;;;;;;10440964;28;20225;-79
2022/05/25 04:03:12;;;;;;;2.00;1.90;;;17.00;90.90;;;;;;10418903;28;20296;-79
2022/05/25 04:08:14;;;;;;;1.70;1.50;;;17.00;91.20;;;;;;10430701;28;20216;-78
2022/05/25 04:13:17;;;;;;;2.50;1.93;;;16.90;91.30;;;;;;10430489;28;20682;-78
2022/05/25 04:18:20;;;;;;;2.40;2.20;;;16.90;91.90;;;;;;10435284;28;20239;-78
2022/05/25 04:23:24;;;;;;;1.90;1.80;;;17.00;91.60;;;;;;10441148;28;20220;-78
2022/05/25 04:28:26;;;;;;;2.20;2.00;;;17.00;93.10;;;;;;10432897;28;20234;-76
2022/05/25 04:33:30;;;;;;;2.83;1.77;;;17.00;91.20;;;;;;10421126;28;20247;-79
2022/05/25 04:38:32;;;;;;;2.03;1.90;;;17.00;91.50;;;;;;10434134;28;20597;-79
2022/05/25 04:43:35;;;;;;;2.10;2.00;;;17.00;91.70;;;;;;10418691;28;20297;-79
2022/05/25 04:48:38;;;;;;;1.67;1.40;;;17.10;91.90;;;;;;10424986;28;20217;-78
2022/05/25 04:53:42;;;;;;;1.37;1.27;;;17.20;91.30;;;;;;10450655;28;20256;-79
2022/05/25 04:58:46;;;;;;;1.43;1.33;;;17.30;91.60;;;;;;10442931;28;20232;-79
2022/05/25 05:03:50;;;;;;;2.20;2.10;;;17.40;91.60;;;;;;10453904;28;20275;-79
2022/05/25 05:08:52;;;;;;;2.10;2.00;;;17.40;91.60;;;;;;10452164;28;20637;-80
2022/05/25 05:13:54;;;;;;;1.70;1.60;;;17.50;90.60;;;;;;10452286;28;20228;-79
2022/05/25 05:18:59;;;;;;;1.63;1.63;;;17.60;90.80;;;;;;10441735;28;20248;-81
2022/05/25 05:24:23;;;;;;;2.80;1.97;;;17.60;91.00;;;;;;10419693;28;20225;-80
2022/05/25 05:29:28;;;;;;;1.80;1.70;;;17.60;90.90;;;;;;10421705;28;20217;-80
2022/05/25 05:34:31;;;;;;;1.80;1.73;;;17.50;90.80;;;;;;10438237;28;20641;-80
2022/05/25 05:39:38;;;;;;;2.37;2.27;;;17.60;90.40;;;;;;10428058;28;20190;-80
2022/05/25 05:44:45;;;;;;;2.37;2.27;;;17.60;90.20;;;;;;10426220;28;20313;-79
2022/05/25 05:49:49;;;;;;;2.07;1.97;;;17.60;91.00;;;;;;10441213;28;20633;-80
2022/05/25 05:54:51;;;;;;;2.13;2.03;;;17.60;91.70;;;;;;10453486;22;20708;-78
2022/05/25 05:59:53;;;;;;;2.10;2.00;;;17.60;91.10;;;;;;10427960;28;20718;-78
2022/05/25 06:04:56;;;;;;;2.47;2.30;;;17.50;90.40;;;;;;10449578;28;20304;-78
2022/05/25 06:09:58;;;;;;;2.30;2.10;;;17.80;91.40;;;;;;10441847;28;20593;-78
2022/05/25 06:19:25;;;;;;;2.17;2.07;;;17.90;90.50;;;;;;10449368;28;20221;-78
2022/05/25 06:20:26;;;;;;;2.10;2.00;;;18.10;89.30;;;;;;10446443;28;20274;-77
2022/05/25 06:25:28;;;;;;;2.67;2.00;;;18.20;89.00;;;;;;10445444;28;20720;-77
2022/05/25 06:30:30;;;;;;;2.10;2.00;;;18.40;87.60;;;;;;10452560;28;20273;-77
2022/05/25 06:35:34;;;;;;;2.57;2.30;;;18.60;83.70;;;;;;10451185;28;20221;-77
2022/05/25 06:40:36;;;;;;;2.80;2.07;;;18.70;84.00;;;;;;10452241;28;20205;-77
2022/05/25 06:45:39;;;;;;;2.30;2.20;;;18.90;83.70;;;;;;10451084;28;20214;-76
2022/05/25 06:50:46;;;;;;;2.13;2.03;;;19.10;86.10;;;;;;10453182;28;20675;-77
2022/05/25 06:55:48;;;;;;;3.67;2.30;;;19.40;85.40;;;;;;10449235;28;20735;-77
2022/05/25 07:00:50;;;;;;;2.20;2.10;;;19.50;84.80;;;;;;10434767;28;20283;-77
2022/05/25 07:05:54;;;;;;;2.17;2.07;;;19.80;81.60;;;;;;10452346;28;20217;-77
2022/05/25 07:10:56;;;;;;;1.40;1.40;;;19.90;83.90;;;;;;10451758;28;20271;-77
2022/05/25 07:16:00;;;;;;;3.73;2.20;;;19.70;81.00;;;;;;10453435;28;20197;-77
2022/05/25 07:21:07;;;;;;;2.97;2.00;;;19.60;82.50;;;;;;10453216;28;20247;-77
2022/05/25 07:26:10;;;;;;;2.50;2.17;;;19.60;82.80;;;;;;10426927;28;20626;-77
2022/05/25 07:31:18;;;;;;;2.33;1.90;;;19.70;80.60;;;;;;10429233;28;20701;-77
2022/05/25 07:36:22;;;;;;;2.50;2.00;;;19.70;81.50;;;;;;10420448;28;20649;-77
2022/05/25 07:41:24;;;;;;;3.20;2.00;;;19.80;80.50;;;;;;10421705;28;20259;-77
2022/05/25 07:46:27;;;;;;;1.23;1.10;;;20.00;75.90;;;;;;10421673;28;20891;-76
2022/05/25 07:51:31;;;;;;;2.50;2.30;;;20.00;78.50;;;;;;10404660;28;20233;-77
2022/05/25 07:56:35;;;;;;;2.70;2.00;;;20.30;79.10;;;;;;10420276;28;20194;-77
2022/05/25 08:07:02;;;;;;;1.90;1.80;;;21.10;77.90;;;;;;10402479;28;20537;-77
2022/05/25 08:12:06;;;;;;;1.73;1.73;;;21.50;77.70;;;;;;10421611;28;20217;-78
2022/05/25 08:17:08;;;;;;;2.30;2.20;;;21.80;78.80;;;;;;10416306;28;20631;-77
2022/05/25 08:22:12;;;;;;;3.47;2.50;;;22.30;74.40;;;;;;10422747;28;20260;-77
2022/05/25 08:27:14;;;;;;;2.03;1.90;;;22.40;72.80;;;;;;10420099;28;20550;-78
2022/05/25 08:32:16;;;;;;;1.77;1.70;;;22.60;73.20;;;;;;10423653;28;20276;-78
2022/05/25 08:37:20;;;;;;;1.90;1.80;;;23.40;72.50;;;;;;10421362;28;20197;-77
2022/05/25 08:42:26;;;;;;;1.80;1.70;;;23.30;72.90;;;;;;10424290;28;20267;-77
2022/05/25 08:47:28;;;;;;;1.70;1.70;;;23.20;73.20;;;;;;10450080;28;20197;-78
2022/05/25 08:52:35;;;;;;;1.93;1.83;;;23.30;71.50;;;;;;10450355;28;20652;-78
2022/05/25 08:57:41;;;;;;;2.10;2.00;;;23.70;68.90;;;;;;10454106;28;20197;-77
2022/05/25 09:03:00;;;;;;;2.00;1.90;;;23.80;69.60;;;;;;10447803;28;20213;-76
2022/05/25 09:08:13;;;;;;;2.40;1.87;;;24.60;69.20;;;;;;10445658;28;20208;-77
2022/05/25 09:13:19;;;;;;;4.40;1.50;;;25.10;65.60;;;;;;10424640;28;20239;-77
2022/05/25 09:18:21;;;;;;;1.33;1.33;;;25.10;63.50;;;;;;10425698;28;20236;-78
2022/05/25 09:23:25;;;;;;;1.20;1.20;;;24.60;65.50;;;;;;10426789;28;20213;-77
2022/05/25 09:28:31;;;;;;;1.70;1.60;;;24.90;64.50;;;;;;10416628;28;20205;-77
2022/05/25 09:33:39;;;;;;;1.60;1.50;;;25.20;63.50;;;;;;10417574;28;20291;-78
2022/05/25 09:38:53;;;;;;;1.20;0.93;;;25.30;61.90;;;;;;10412652;28;20194;-78
2022/05/25 09:43:58;;;;;;;2.00;1.80;;;25.10;61.10;;;;;;10413986;28;20214;-77
2022/05/25 09:49:04;;;;;;;2.87;1.67;;;24.60;62.50;;;;;;10419255;28;20198;-77
2022/05/25 09:54:14;;;;;;;1.43;1.40;;;24.30;60.40;;;;;;10409068;28;20229;-78
2022/05/25 09:59:25;;;;;;;1.50;1.37;;;24.10;62.40;;;;;;10417076;28;20629;-77
2022/05/25 10:04:51;;;;;;;1.80;1.70;;;25.60;60.90;;;;;;10419279;28;20701;-76
2022/05/25 10:10:00;;;;;;;1.37;1.37;;;27.60;58.40;;;;;;10418927;28;20365;-77
2022/05/25 10:15:05;;;;;;;3.63;1.60;;;27.60;56.90;;;;;;10420636;28;20209;-79
2022/05/25 10:20:24;;;;;;;2.00;1.47;;;27.00;58.20;;;;;;10418688;28;20221;-77
2022/05/25 10:25:30;;;;;;;1.57;1.47;;;26.20;58.20;;;;;;10422188;28;20225;-77
2022/05/25 10:41:43;;;;;;;1.53;1.43;;;24.30;58.90;;;;;;10412684;28;20214;-77
2022/05/25 10:46:53;;;;;;;2.70;1.43;;;23.70;59.20;;;;;;10428617;28;20202;-77
2022/05/25 10:52:01;;;;;;;1.40;1.33;;;23.40;59.90;;;;;;10417599;28;20228;-77
2022/05/25 10:57:32;;;;;;;3.77;1.30;;;22.90;60.50;;;;;;10431310;28;20205;-77
2022/05/25 11:03:08;;;;;;;1.60;1.50;;;22.60;59.30;;;;;;10421627;28;20221;-77
2022/05/25 11:08:18;;;;;;;1.23;1.00;;;22.40;61.30;;;;;;10409000;28;20230;-77
2022/05/25 11:13:46;;;;;;;1.40;1.30;;;22.30;60.90;;;;;;10427994;28;20231;-77
2022/05/25 11:19:04;;;;;;;3.43;1.80;;;22.20;63.20;;;;;;10411158;28;20240;-78
2022/05/25 11:24:24;;;;;;;2.30;2.10;;;22.10;61.70;;;;;;10415777;28;20301;-77
2022/05/25 11:29:46;;;;;;;1.50;1.40;;;22.30;61.60;;;;;;10416762;28;20270;-77
2022/05/25 11:35:10;;;;;;;1.87;1.73;;;22.40;61.00;;;;;;10408345;28;20214;-77
2022/05/25 11:40:22;;;;;;;1.53;1.43;;;22.40;61.80;;;;;;10391332;28;20228;-77
2022/05/25 11:45:41;;;;;;;1.87;1.77;;;22.50;63.10;;;;;;10386089;28;21699;-78
2022/05/25 11:50:48;;;;;;;2.60;1.40;;;22.60;64.60;;;;;;10436774;28;20687;-78
2022/05/25 11:56:06;;;;;;;4.63;1.40;;;22.70;64.30;;;;;;10442056;22;20226;-81
2022/05/25 12:01:19;;;;;;;3.10;1.30;;;22.60;65.20;;;;;;10419136;28;20194;-81
2022/05/25 12:07:07;;;;;;;1.83;1.40;;;22.40;62.60;;;;;;10423491;28;20567;-81
2022/05/25 12:12:16;;;;;;;1.50;1.20;;;22.20;64.30;;;;;;10375829;28;20236;-80
2022/05/25 12:17:29;;;;;;;1.67;1.57;;;22.20;64.30;;;;;;10424768;28;20198;-81
2022/05/25 12:22:34;;;;;;;2.07;1.40;;;22.30;64.10;;;;;;10417007;28;20218;-81
2022/05/25 12:27:41;;;;;;;1.73;1.63;;;22.50;62.50;;;;;;10413511;28;20701;-80
2022/05/25 12:32:46;;;;;;;2.90;1.73;;;22.50;61.70;;;;;;10406698;28;20291;-81
2022/05/25 12:37:51;;;;;;;1.57;1.33;;;22.50;63.40;;;;;;10425636;28;20198;-80
2022/05/25 12:42:53;;;;;;;1.63;1.53;;;22.30;61.80;;;;;;10427001;28;20660;-81
2022/05/25 12:53:33;;;;;;;1.30;1.20;;;21.90;62.40;;;;;;10418880;28;20236;-79
2022/05/25 12:58:44;;;;;;;1.20;1.20;;;21.90;61.80;;;;;;10422006;28;20190;-79
2022/05/25 13:04:16;;;;;;;1.20;1.10;;;21.80;60.90;;;;;;10413882;28;20312;-80
2022/05/25 13:09:34;;;;;;;1.57;1.40;;;21.90;63.30;;;;;;10394362;28;20230;-79
2022/05/25 13:14:57;;;;;;;1.80;1.70;;;22.00;64.20;;;;;;10400161;28;20712;-80
2022/05/25 13:20:06;;;;;;;1.47;1.30;;;22.20;63.00;;;;;;10412166;28;20190;-81
2022/05/25 13:25:17;;;;;;;1.83;1.43;;;22.40;61.90;;;;;;10404112;28;20232;-80
2022/05/25 13:30:24;;;;;;;1.20;1.20;;;22.60;60.50;;;;;;10415356;28;20249;-81
2022/05/25 13:35:36;;;;;;;1.40;1.30;;;22.40;60.30;;;;;;10420974;28;20225;-80
2022/05/25 13:40:43;;;;;;;1.60;1.50;;;22.30;59.80;;;;;;10426860;28;20247;-80
2022/05/25 13:45:47;;;;;;;1.53;1.33;;;22.40;60.30;;;;;;10430830;28;20214;-81
2022/05/25 13:50:56;;;;;;;1.70;1.60;;;22.60;60.10;;;;;;10421553;28;20244;-80
2022/05/25 13:56:04;;;;;;;1.90;1.80;;;22.70;60.70;;;;;;10426126;28;20233;-81
2022/05/25 14:01:09;;;;;;;1.43;1.30;;;22.80;59.80;;;;;;10423566;28;20580;-81
2022/05/25 14:06:15;;;;;;;2.07;1.97;;;22.90;60.70;;;;;;10424061;28;20190;-80
2022/05/25 14:11:21;;;;;;;1.10;1.00;;;22.80;60.40;;;;;;10420516;28;20245;-79
2022/05/25 14:16:26;;;;;;;3.17;1.50;;;22.80;58.70;;;;;;10424440;28;20233;-80
2022/05/25 14:21:41;;;;;;;5.00;1.40;;;22.70;59.80;;;;;;10422280;28;20229;-80
2022/05/25 14:26:47;;;;;;;1.50;1.40;;;22.60;58.90;;;;;;10420180;28;20205;-79
2022/05/25 14:31:51;;;;;;;1.13;1.03;;;22.60;58.50;;;;;;10427639;28;20288;-79
2022/05/25 14:36:58;;;;;;;1.30;1.20;;;22.70;59.70;;;;;;10436673;28;20202;-81
2022/05/25 14:42:08;;;;;;;1.03;0.93;;;22.60;58.30;;;;;;10422941;28;20245;-79
2022/05/25 14:47:24;;;;;;;1.70;1.60;;;22.50;59.40;;;;;;10422136;28;20370;-80
2022/05/25 14:52:29;;;;;;;1.67;1.30;;;22.50;59.70;;;;;;10421062;28;20229;-79
2022/05/25 14:57:31;;;;;;;1.60;1.50;;;22.50;59.80;;;;;;10402780;28;20210;-78
2022/05/25 15:02:36;;;;;;;2.07;1.30;;;22.60;60.70;;;;;;10407539;28;20221;-78
2022/05/25 15:07:50;;;;;;;2.37;1.80;;;22.50;58.80;;;;;;10408095;28;20650;-79
2022/05/25 15:12:52;;;;;;;2.07;1.97;;;22.40;59.50;;;;;;10368610;28;20241;-78
2022/05/25 15:23:34;;;;;;;2.50;1.83;;;22.20;60.00;;;;;;10404507;28;20214;-79
2022/05/25 15:28:36;;;;;;;2.10;2.00;;;22.10;60.80;;;;;;10393686;28;20635;-80
2022/05/25 15:33:38;;;;;;;2.23;2.10;;;22.10;61.60;;;;;;10393398;28;20655;-80
2022/05/25 15:38:42;;;;;;;2.03;1.93;;;22.20;61.70;;;;;;10396741;28;20198;-78
2022/05/25 15:43:45;;;;;;;1.70;1.60;;;22.10;61.10;;;;;;10387200;28;20250;-79
2022/05/25 15:48:49;;;;;;;7.40;2.10;;;22.00;62.10;;;;;;10394479;28;20202;-80
2022/05/25 15:53:53;;;;;;;2.00;1.90;;;21.90;62.50;;;;;;10391212;28;20241;-79
2022/05/25 15:58:55;;;;;;;1.63;1.53;;;21.90;61.40;;;;;;10382130;28;20596;-81
2022/05/25 16:04:02;;;;;;;1.70;1.60;;;21.90;61.30;;;;;;10366305;28;20218;-81
2022/05/25 16:09:19;;;;;;;4.33;1.50;;;21.90;61.20;;;;;;10406630;28;20202;-78
2022/05/25 16:14:22;;;;;;;2.27;2.17;;;21.90;61.10;;;;;;10403389;28;20226;-80
2022/05/25 16:19:25;;;;;;;2.20;2.00;;;21.90;61.00;;;;;;10397132;28;20721;-80
2022/05/25 16:24:28;;;;;;;1.60;1.50;;;22.00;61.00;;;;;;10381486;28;20247;-80
2022/05/25 16:29:31;;;;;;;2.17;2.07;;;21.90;62.90;;;;;;10407219;28;20226;-81
2022/05/25 16:34:33;;;;;;;3.10;1.90;;;21.90;61.40;;;;;;10383758;28;20226;-80
2022/05/25 16:39:37;;;;;;;1.67;1.50;;;21.80;63.00;;;;;;10404855;28;20207;-79
2022/05/25 16:44:40;;;;;;;2.30;2.20;;;21.90;62.90;;;;;;10418540;28;20225;-81
2022/05/25 16:49:42;;;;;;;2.20;2.00;;;21.90;64.60;;;;;;10404518;28;20209;-80
2022/05/25 16:54:45;;;;;;;2.70;2.40;;;22.00;63.20;;;;;;10401036;28;20280;-78
2022/05/25 16:59:47;;;;;;;2.20;2.10;;;22.00;62.90;;;;;;10411982;28;20205;-80
2022/05/25 17:04:49;;;;;;;2.50;2.30;;;22.10;61.90;;;;;;10394884;28;20313;-78
2022/05/25 17:09:53;;;;;;;2.43;2.20;;;22.10;63.00;;;;;;10421379;28;20738;-78
2022/05/25 17:14:56;;;;;;;2.57;2.37;;;22.10;62.10;;;;;;10411725;28;20245;-80
2022/05/25 17:25:18;;;;;;;2.13;1.90;;;21.90;62.80;;;;;;10409770;28;20248;-78
2022/05/25 17:30:22;;;;;;;1.77;1.67;;;21.70;63.90;;;;;;10406913;28;20526;-79
2022/05/25 17:35:24;;;;;;;2.03;1.93;;;21.70;62.40;;;;;;10409997;28;20244;-78
2022/05/25 17:45:48;;;;;;;3.47;2.40;;;21.50;64.90;;;;;;10388474;28;20218;-79
2022/05/25 17:50:50;;;;;;;1.90;1.80;;;21.40;64.90;;;;;;10362740;28;20295;-79
2022/05/25 17:55:54;;;;;;;2.20;2.00;;;21.30;65.70;;;;;;10370400;28;20804;-79
2022/05/25 18:00:56;;;;;;;2.20;1.97;;;21.20;66.00;;;;;;10370560;28;20209;-80
2022/05/25 18:05:59;;;;;;;2.30;2.10;;;21.20;65.40;;;;;;10373083;28;20218;-80
2022/05/25 18:11:04;;;;;;;2.50;2.00;;;21.20;66.70;;;;;;10368718;28;20214;-79
2022/05/25 18:16:07;;;;;;;3.73;2.73;;;21.10;65.90;;;;;;10388935;28;20250;-80
2022/05/25 18:21:09;;;;;;;3.10;2.30;;;21.00;66.40;;;;;;10364666;28;20206;-80
2022/05/25 18:26:13;;;;;;;3.07;1.73;;;21.00;68.30;;;;;;10373441;28;20212;-81
2022/05/25 18:31:15;;;;;;;1.93;1.83;;;20.90;65.50;;;;;;10363294;28;20218;-80
2022/05/25 18:36:25;;;;;;;3.80;2.27;;;20.80;67.40;;;;;;10367351;28;20214;-81
2022/05/25 18:41:29;;;;;;;3.00;2.80;;;20.80;68.10;;;;;;10372810;28;20191;-80
2022/05/25 18:46:31;;;;;;;3.40;3.20;;;20.70;67.00;;;;;;10397446;28;20209;-80
2022/05/25 18:51:33;;;;;;;3.67;3.40;;;20.60;66.80;;;;;;10419263;28;20300;-81
2022/05/25 18:56:37;;;;;;;4.50;4.20;;;20.60;67.00;;;;;;10401065;28;20198;-80
2022/05/25 19:01:39;;;;;;;3.97;3.63;;;20.60;71.70;;;;;;10416260;28;20245;-78
2022/05/25 19:06:41;;;;;;;2.40;2.30;;;20.50;68.90;;;;;;10420128;28;20204;-80
2022/05/25 19:11:47;;;;;;;6.90;2.73;;;20.50;71.20;;;;;;10418996;28;20221;-80
2022/05/25 19:16:49;;;;;;;2.50;2.30;;;20.50;72.20;;;;;;10384349;28;20294;-81
2022/05/25 19:21:55;;;;;;;2.60;2.40;;;20.40;72.20;;;;;;10396287;28;20688;-78
2022/05/25 19:27:02;;;;;;;2.90;2.70;;;20.40;73.30;;;;;;10381489;28;20281;-80
2022/05/25 19:32:06;;;;;;;2.53;2.40;;;20.30;72.40;;;;;;10388657;28;20237;-79
2022/05/25 19:37:08;;;;;;;3.50;3.30;;;20.30;75.60;;;;;;10383170;28;20194;-79
2022/05/25 19:42:17;;;;;;;3.20;3.00;;;20.20;76.70;;;;;;10395991;28;20249;-78
2022/05/25 19:47:21;;;;;;;2.20;2.00;;;20.20;72.50;;;;;;10396505;28;20230;-79
2022/05/25 19:52:23;;;;;;;2.83;2.63;;;20.10;73.70;;;;;;10401448;28;20661;-81
2022/05/25 19:57:30;;;;;;;2.17;2.03;;;20.00;71.60;;;;;;10404338;28;20281;-82
2022/05/25 20:02:32;;;;;;;2.40;2.30;;;20.00;76.20;;;;;;10395705;28;20230;-79
2022/05/25 20:07:35;;;;;;;3.27;2.30;;;19.90;76.20;;;;;;10383907;28;20210;-81
2022/05/25 20:12:39;;;;;;;3.70;3.50;;;19.80;74.40;;;;;;10375501;28;20276;-81
2022/05/25 20:17:41;;;;;;;2.63;2.43;;;19.70;74.60;;;;;;10388701;28;20233;-81
2022/05/25 20:22:43;;;;;;;2.43;1.40;;;19.70;75.10;;;;;;10396381;28;20293;-80
2022/05/25 20:27:47;;;;;;;1.90;1.80;;;19.60;77.80;;;;;;10397044;28;20625;-81
2022/05/25 20:32:49;;;;;;;3.50;2.03;;;19.50;77.10;;;;;;10398326;28;20229;-80
2022/05/25 20:37:51;;;;;;;2.70;2.50;;;19.50;76.30;;;;;;10402067;28;20229;-80
2022/05/25 20:42:56;;;;;;;2.87;2.00;;;19.40;77.50;;;;;;10389362;28;20229;-81
2022/05/25 20:47:58;;;;;;;2.17;2.07;;;19.20;73.30;;;;;;10414614;28;20209;-81
2022/05/25 20:53:01;;;;;;;2.03;1.93;;;19.20;76.40;;;;;;10388367;28;20654;-80
2022/05/25 20:58:05;;;;;;;2.73;2.47;;;19.00;76.50;;;;;;10405689;28;20654;-80
2022/05/25 21:03:10;;;;;;;2.30;2.10;;;18.70;75.10;;;;;;10373261;28;20790;-80
2022/05/25 21:08:12;;;;;;;1.50;1.40;;;18.60;76.80;;;;;;10362825;28;20198;-80
2022/05/25 21:13:17;;;;;;;1.53;1.43;;;18.50;76.30;;;;;;10365819;28;20231;-81
2022/05/25 21:18:19;;;;;;;2.00;1.90;;;18.50;77.20;;;;;;10394408;28;20206;-80
2022/05/25 21:23:21;;;;;;;2.00;1.90;;;18.50;78.30;;;;;;10393689;28;20242;-83
2022/05/25 21:28:25;;;;;;;1.70;1.60;;;18.40;77.70;;;;;;10400569;28;20545;-78
2022/05/25 21:33:30;;;;;;;2.00;1.90;;;18.50;79.60;;;;;;10387507;28;20769;-80
2022/05/25 21:38:32;;;;;;;2.30;2.20;;;18.50;79.00;;;;;;10405908;28;20620;-81
2022/05/25 21:43:37;;;;;;;1.70;1.60;;;18.50;79.20;;;;;;10408654;28;20217;-80
2022/05/25 21:53:59;;;;;;;2.33;2.20;;;18.40;78.60;;;;;;10402741;28;20233;-80
2022/05/25 21:59:03;;;;;;;3.17;2.40;;;18.30;79.70;;;;;;10407576;28;20232;-79
2022/05/25 22:04:06;;;;;;;4.83;2.90;;;18.40;82.70;;;;;;10413373;28;20701;-80
2022/05/25 22:09:08;;;;;;;2.20;2.00;;;18.40;79.80;;;;;;10400005;28;20209;-81
2022/05/25 22:14:11;;;;;;;2.40;2.20;;;18.40;80.30;;;;;;10401133;28;20234;-81
2022/05/25 22:19:13;;;;;;;2.10;2.00;;;18.20;79.80;;;;;;10405689;28;20205;-81
2022/05/25 22:24:16;;;;;;;1.90;1.63;;;18.20;78.40;;;;;;10409625;28;20223;-79
2022/05/25 22:29:20;;;;;;;1.80;1.70;;;18.10;80.90;;;;;;10382893;28;20212;-80
2022/05/25 22:34:22;;;;;;;1.80;1.70;;;18.10;80.80;;;;;;10416413;28;20596;-80
2022/05/25 22:39:24;;;;;;;1.80;1.70;;;18.10;82.50;;;;;;10411524;28;20686;-79
2022/05/25 22:44:30;;;;;;;1.97;1.87;;;18.00;82.80;;;;;;10406064;28;20225;-77
2022/05/25 22:49:32;;;;;;;1.70;1.60;;;18.00;78.50;;;;;;10418074;28;20256;-79
2022/05/25 22:54:35;;;;;;;1.40;1.30;;;17.90;79.20;;;;;;10414267;28;20232;-81
2022/05/25 22:59:39;;;;;;;1.60;1.50;;;17.90;80.80;;;;;;10415489;28;20206;-80
2022/05/25 23:04:43;;;;;;;2.00;1.90;;;17.90;80.60;;;;;;10417006;28;20218;-81
2022/05/25 23:09:45;;;;;;;2.50;1.70;;;17.80;79.40;;;;;;10391683;28;20229;-80
2022/05/25 23:14:48;;;;;;;1.87;1.67;;;17.70;77.20;;;;;;10391916;28;20263;-80
2022/05/25 23:19:51;;;;;;;2.00;1.90;;;17.70;79.90;;;;;;10374838;28;20206;-80
2022/05/25 23:25:02;;;;;;;1.83;1.73;;;17.70;77.30;;;;;;10397063;28;20698;-80
2022/05/25 23:30:09;;;;;;;2.43;2.33;;;17.70;80.00;;;;;;10385003;28;20199;-79
2022/05/25 23:35:15;;;;;;;3.37;1.80;;;17.70;79.90;;;;;;10383030;28;20725;-79
2022/05/25 23:40:17;;;;;;;1.67;1.57;;;17.80;81.10;;;;;;10382343;28;20213;-79
2022/05/25 23:45:22;;;;;;;1.50;1.40;;;17.80;81.70;;;;;;10391189;28;20225;-80
2022/05/25 23:50:24;;;;;;;2.40;1.67;;;17.70;78.40;;;;;;10402158;28;20198;-79
2022/05/25 23:55:26;;;;;;;3.27;2.00;;;17.70;81.30;;;;;;10400032;28;20222;-79
